Time;durP1;ratioP1;P1;durP2;ratioP2;P2;SDS_P1;SDS_P2;PMS_P1;PMS_P2;Temp;Humidity;BMP_temperature;BMP_pressure;BME280_temperature;BME280_humidity;BME280_pressure;Samples;Min_cycle;Max_cycle;Signal;HPM_P1;HPM_P2
2022/08/30 00:03:01;;;;;;;12.05;8.05;;;23.10;76.10;;;;;;5073671;28;20392;-12
2022/08/30 00:05:28;;;;;;;9.32;7.20;;;23.10;76.10;;;;;;5073778;28;20028;-12
2022/08/30 00:07:54;;;;;;;15.57;8.70;;;23.20;76.20;;;;;;5073752;28;20024;-12
2022/08/30 00:10:20;;;;;;;13.32;8.57;;;23.10;77.00;;;;;;5073916;28;20112;-13
2022/08/30 00:12:47;;;;;;;10.57;7.53;;;23.20;76.90;;;;;;5073492;28;20655;-12
2022/08/30 00:15:14;;;;;;;11.20;7.75;;;23.10;76.30;;;;;;5072560;28;20380;-12
2022/08/30 00:17:42;;;;;;;11.23;7.22;;;23.10;76.10;;;;;;5072950;28;20369;-12
2022/08/30 00:20:12;;;;;;;12.10;7.35;;;23.20;76.10;;;;;;5073816;28;20473;-12
2022/08/30 00:22:38;;;;;;;11.65;8.30;;;23.20;76.00;;;;;;5073465;28;20028;-12
2022/08/30 00:25:04;;;;;;;11.35;7.40;;;23.20;75.90;;;;;;5073833;28;20066;-12
2022/08/30 00:27:30;;;;;;;13.23;7.40;;;23.20;76.00;;;;;;5073375;28;20103;-12
2022/08/30 00:29:56;;;;;;;11.30;7.68;;;23.20;76.00;;;;;;5073592;28;20542;-12
2022/08/30 00:32:23;;;;;;;12.73;9.27;;;23.20;75.90;;;;;;5074139;28;20529;-13
2022/08/30 00:34:53;;;;;;;9.77;7.30;;;23.20;76.00;;;;;;5073410;28;20032;-12
2022/08/30 00:37:19;;;;;;;12.02;7.30;;;23.20;75.90;;;;;;5073544;28;20103;-12
2022/08/30 00:39:45;;;;;;;12.13;7.40;;;23.20;76.10;;;;;;5073284;28;20473;-12
2022/08/30 00:42:12;;;;;;;12.20;8.50;;;23.20;76.80;;;;;;5073222;28;20025;-12
2022/08/30 00:44:41;;;;;;;10.73;7.03;;;23.20;77.30;;;;;;5073179;28;20016;-12
2022/08/30 00:47:07;;;;;;;9.57;7.80;;;23.10;76.60;;;;;;5072312;28;20309;-13
2022/08/30 00:49:35;;;;;;;10.65;7.80;;;23.10;76.40;;;;;;5073730;28;20032;-11
2022/08/30 00:52:03;;;;;;;11.20;7.57;;;23.10;76.40;;;;;;5072852;28;20048;-11
2022/08/30 00:54:30;;;;;;;9.02;6.90;;;23.10;76.40;;;;;;5073066;28;20396;-13
2022/08/30 00:56:57;;;;;;;11.95;9.30;;;23.10;76.50;;;;;;5072827;28;20455;-13
2022/08/30 00:59:25;;;;;;;12.13;8.15;;;23.10;76.90;;;;;;5073283;28;20477;-12
2022/08/30 01:01:51;;;;;;;14.88;9.70;;;23.00;77.00;;;;;;5072902;28;20027;-12
2022/08/30 01:04:20;;;;;;;12.63;8.82;;;22.90;77.20;;;;;;5073256;28;20534;-12
2022/08/30 01:06:47;;;;;;;11.88;8.90;;;22.90;77.30;;;;;;5073250;28;20020;-13
2022/08/30 01:09:13;;;;;;;12.82;8.70;;;22.90;77.50;;;;;;5073028;28;20066;-12
2022/08/30 01:11:42;;;;;;;10.85;7.93;;;22.90;77.80;;;;;;5073267;28;20033;-12
2022/08/30 01:14:10;;;;;;;16.23;11.05;;;22.90;77.90;;;;;;5072832;28;20025;-14
2022/08/30 01:16:38;;;;;;;14.55;9.40;;;22.80;78.20;;;;;;5073083;28;20031;-13
2022/08/30 01:19:08;;;;;;;12.70;8.63;;;22.80;78.40;;;;;;5072720;28;20028;-12
2022/08/30 01:21:48;;;;;;;11.50;7.82;;;22.80;78.60;;;;;;5072910;28;20465;-13
2022/08/30 01:24:15;;;;;;;13.65;8.23;;;22.80;78.70;;;;;;5072023;28;20445;-13
2022/08/30 01:26:41;;;;;;;11.50;7.57;;;22.80;78.70;;;;;;5072778;28;20025;-13
2022/08/30 01:29:12;;;;;;;13.60;9.38;;;22.80;78.60;;;;;;5073975;28;20077;-13
2022/08/30 01:31:38;;;;;;;12.20;8.75;;;22.80;78.70;;;;;;5076915;28;20020;-13
2022/08/30 01:34:06;;;;;;;13.27;9.23;;;22.80;78.80;;;;;;5077014;28;20029;-12
2022/08/30 01:36:37;;;;;;;14.35;10.38;;;22.80;78.80;;;;;;5076766;28;20032;-14
2022/08/30 01:39:04;;;;;;;14.50;11.60;;;22.80;79.00;;;;;;5076385;28;20499;-13
2022/08/30 01:41:33;;;;;;;12.90;10.50;;;22.80;79.10;;;;;;5076727;28;20158;-13
2022/08/30 01:44:06;;;;;;;10.75;8.00;;;22.80;79.20;;;;;;5076413;28;20024;-13
2022/08/30 01:46:36;;;;;;;10.23;7.90;;;22.70;79.30;;;;;;5076661;28;20395;-13
2022/08/30 01:49:05;;;;;;;10.52;7.68;;;22.70;79.30;;;;;;5076491;28;20025;-13
2022/08/30 01:51:32;;;;;;;12.35;9.10;;;22.70;79.40;;;;;;5075948;28;20431;-13
2022/08/30 01:53:59;;;;;;;11.30;8.25;;;22.70;79.50;;;;;;5076537;28;20044;-12
2022/08/30 01:56:27;;;;;;;11.00;8.10;;;22.60;79.40;;;;;;5076510;28;20024;-13
2022/08/30 01:58:54;;;;;;;12.82;9.45;;;22.60;79.40;;;;;;5076101;28;20029;-12
2022/08/30 02:01:23;;;;;;;11.07;8.60;;;22.60;79.50;;;;;;5074798;28;20075;-13
2022/08/30 02:03:49;;;;;;;12.25;9.18;;;22.60;79.70;;;;;;5076397;28;20032;-12
2022/08/30 02:06:18;;;;;;;10.20;8.27;;;22.60;79.90;;;;;;5076318;28;20108;-11
2022/08/30 02:08:45;;;;;;;13.15;9.25;;;22.60;79.90;;;;;;5076319;28;20035;-12
2022/08/30 02:11:12;;;;;;;15.50;9.98;;;22.50;80.10;;;;;;5075884;28;20024;-13
2022/08/30 02:13:39;;;;;;;12.95;10.00;;;22.50;80.30;;;;;;5075702;28;20032;-12
2022/08/30 02:16:07;;;;;;;14.88;11.95;;;22.50;80.90;;;;;;5075783;28;20028;-12
2022/08/30 02:18:34;;;;;;;13.55;9.73;;;22.50;81.20;;;;;;5074586;28;20427;-13
2022/08/30 02:21:01;;;;;;;16.45;11.88;;;22.50;80.80;;;;;;5075672;28;20020;-14
2022/08/30 02:23:27;;;;;;;14.15;10.73;;;22.50;81.70;;;;;;5076039;28;20024;-13
2022/08/30 02:25:54;;;;;;;17.88;11.90;;;22.40;81.30;;;;;;5075932;28;20534;-12
2022/08/30 02:28:20;;;;;;;15.20;10.30;;;22.50;81.60;;;;;;5074450;28;20033;-13
2022/08/30 02:30:47;;;;;;;16.35;12.23;;;22.40;81.50;;;;;;5076118;28;20381;-12
2022/08/30 02:33:13;;;;;;;15.25;12.27;;;22.40;81.70;;;;;;5075823;28;20031;-13
2022/08/30 02:35:39;;;;;;;16.17;12.75;;;22.40;81.80;;;;;;5075759;28;20037;-13
2022/08/30 02:38:06;;;;;;;13.75;10.40;;;22.40;81.40;;;;;;5076167;28;20025;-13
2022/08/30 02:40:33;;;;;;;16.55;10.65;;;22.40;81.10;;;;;;5074793;28;20027;-13
2022/08/30 02:42:59;;;;;;;18.88;13.55;;;22.40;81.00;;;;;;5075141;28;20031;-13
2022/08/30 02:45:25;;;;;;;18.08;12.98;;;22.40;81.10;;;;;;5075544;28;20021;-13
2022/08/30 02:47:51;;;;;;;18.38;12.05;;;22.40;81.10;;;;;;5075291;28;20029;-13
2022/08/30 02:50:17;;;;;;;13.88;10.18;;;22.40;81.20;;;;;;5075538;28;20035;-12
2022/08/30 02:52:43;;;;;;;14.65;10.93;;;22.40;81.10;;;;;;5075033;28;20518;-12
2022/08/30 02:55:10;;;;;;;16.65;12.13;;;22.40;81.20;;;;;;5075229;28;20099;-13
2022/08/30 02:57:36;;;;;;;21.27;15.07;;;22.40;81.30;;;;;;5075398;28;20020;-12
2022/08/30 03:00:09;;;;;;;17.77;13.70;;;22.40;81.40;;;;;;5074921;28;20384;-14
2022/08/30 03:02:35;;;;;;;14.55;10.55;;;22.40;81.50;;;;;;5075414;28;20035;-13
2022/08/30 03:05:02;;;;;;;14.27;10.90;;;22.40;81.30;;;;;;5074736;28;20115;-13
2022/08/30 03:07:28;;;;;;;13.68;10.15;;;22.40;81.20;;;;;;5073690;28;20025;-13
2022/08/30 03:09:53;;;;;;;12.73;10.10;;;22.40;81.20;;;;;;5075488;28;20021;-13
2022/08/30 03:12:19;;;;;;;18.40;13.10;;;22.40;81.10;;;;;;5075025;28;20041;-14
2022/08/30 03:14:45;;;;;;;18.90;13.15;;;22.40;81.10;;;;;;5074746;28;20449;-13
2022/08/30 03:17:11;;;;;;;20.65;15.02;;;22.40;81.10;;;;;;5074497;28;20031;-13
2022/08/30 03:19:37;;;;;;;18.25;12.40;;;22.40;81.20;;;;;;5075268;28;20354;-13
2022/08/30 03:22:05;;;;;;;19.25;14.45;;;22.40;81.30;;;;;;5075198;28;20028;-13
2022/08/30 03:24:33;;;;;;;20.77;15.38;;;22.40;81.70;;;;;;5074912;28;20016;-13
2022/08/30 03:26:59;;;;;;;13.90;10.57;;;22.30;82.00;;;;;;5074360;28;20037;-13
2022/08/30 03:29:25;;;;;;;12.68;9.90;;;22.40;81.80;;;;;;5074484;28;20031;-13
2022/08/30 03:31:51;;;;;;;16.02;11.20;;;22.40;81.70;;;;;;5073064;28;20033;-13
2022/08/30 03:34:17;;;;;;;15.48;11.45;;;22.40;81.90;;;;;;5073148;28;20398;-12
2022/08/30 03:36:43;;;;;;;14.73;11.32;;;22.40;82.30;;;;;;5074346;28;20499;-13
2022/08/30 03:39:10;;;;;;;15.43;11.70;;;22.40;82.20;;;;;;5074128;28;20047;-14
2022/08/30 03:41:35;;;;;;;15.65;11.38;;;22.40;82.60;;;;;;5074219;28;20028;-14
2022/08/30 03:44:03;;;;;;;15.82;10.95;;;22.30;82.30;;;;;;5075255;28;20021;-14
2022/08/30 03:46:29;;;;;;;17.45;12.45;;;22.30;82.50;;;;;;5074417;28;20025;-12
2022/08/30 03:48:54;;;;;;;14.68;10.70;;;22.30;82.20;;;;;;5074446;28;20024;-13
2022/08/30 03:51:24;;;;;;;14.00;11.13;;;22.30;82.50;;;;;;5074072;28;20123;-13
2022/08/30 03:53:50;;;;;;;13.40;10.65;;;22.20;82.20;;;;;;5073156;28;20028;-13
2022/08/30 03:56:18;;;;;;;13.25;10.65;;;22.30;82.20;;;;;;5074066;28;20362;-13
2022/08/30 03:58:44;;;;;;;14.48;10.38;;;22.20;82.10;;;;;;5074197;28;20063;-13
2022/08/30 04:01:11;;;;;;;13.98;9.63;;;22.20;82.00;;;;;;5073845;28;20036;-13
2022/08/30 04:03:37;;;;;;;12.68;10.05;;;22.20;82.00;;;;;;5074078;28;20027;-13
2022/08/30 04:06:03;;;;;;;12.60;9.68;;;22.30;82.00;;;;;;5072579;28;20037;-13
2022/08/30 04:08:30;;;;;;;13.57;9.93;;;22.20;82.00;;;;;;5073963;28;20046;-14
2022/08/30 04:10:56;;;;;;;15.73;12.13;;;22.30;82.10;;;;;;5073479;28;20016;-13
2022/08/30 04:13:23;;;;;;;17.17;11.75;;;22.30;82.00;;;;;;5073569;28;20098;-13
2022/08/30 04:15:50;;;;;;;16.80;12.10;;;22.30;82.10;;;;;;5073668;28;20480;-12
2022/08/30 04:18:16;;;;;;;18.73;12.52;;;22.30;82.30;;;;;;5072338;28;20067;-13
2022/08/30 04:20:42;;;;;;;18.90;14.57;;;22.30;82.40;;;;;;5073823;28;20025;-13
2022/08/30 04:23:10;;;;;;;18.75;13.32;;;22.30;82.50;;;;;;5073256;28;20039;-13
2022/08/30 04:25:38;;;;;;;17.88;13.48;;;22.30;82.60;;;;;;5074239;28;20025;-13
2022/08/30 04:28:05;;;;;;;21.17;14.63;;;22.30;82.80;;;;;;5073988;28;20052;-13
2022/08/30 04:30:31;;;;;;;18.20;12.88;;;22.20;82.90;;;;;;5073572;28;20029;-13
2022/08/30 04:32:57;;;;;;;19.80;13.18;;;22.30;83.10;;;;;;5073822;28;20021;-12
2022/08/30 04:35:24;;;;;;;19.35;14.35;;;22.30;83.10;;;;;;5073225;28;20032;-12
2022/08/30 04:37:50;;;;;;;19.17;14.07;;;22.30;83.10;;;;;;5073438;28;20424;-13
2022/08/30 04:40:16;;;;;;;18.92;13.40;;;22.30;83.10;;;;;;5073253;28;20043;-13
2022/08/30 04:42:43;;;;;;;16.25;12.38;;;22.30;83.20;;;;;;5074064;28;20017;-13
2022/08/30 04:45:13;;;;;;;13.85;11.10;;;22.30;83.10;;;;;;5072845;28;20028;-14
2022/08/30 04:47:41;;;;;;;15.13;11.73;;;22.30;83.20;;;;;;5073214;28;20107;-13
2022/08/30 04:50:10;;;;;;;18.35;13.07;;;22.40;83.10;;;;;;5073149;28;20055;-13
2022/08/30 04:52:36;;;;;;;17.48;12.15;;;22.40;83.30;;;;;;5072741;28;20583;-12
2022/08/30 04:55:03;;;;;;;14.20;10.70;;;22.40;83.10;;;;;;5073209;28;20036;-12
2022/08/30 04:57:29;;;;;;;16.75;11.18;;;22.40;83.00;;;;;;5073371;28;20067;-13
2022/08/30 04:59:55;;;;;;;14.07;9.85;;;22.40;82.90;;;;;;5073263;28;20059;-13
2022/08/30 05:02:22;;;;;;;14.32;10.73;;;22.30;83.00;;;;;;5072944;28;20027;-13
2022/08/30 05:07:32;;;;;;;15.90;10.77;;;22.20;83.00;;;;;;5073092;28;20032;-14
2022/08/30 05:09:58;;;;;;;14.18;8.70;;;22.10;83.10;;;;;;5073457;28;20025;-13
2022/08/30 05:12:25;;;;;;;14.50;9.93;;;22.00;83.10;;;;;;5073133;28;20043;-13
2022/08/30 05:14:52;;;;;;;14.48;10.73;;;21.90;83.20;;;;;;5072886;28;20028;-13
2022/08/30 05:17:18;;;;;;;15.35;8.80;;;21.90;83.50;;;;;;5071605;28;20024;-13
2022/08/30 05:19:44;;;;;;;12.98;9.15;;;21.90;83.60;;;;;;5073214;28;20032;-14
2022/08/30 05:22:10;;;;;;;12.85;9.35;;;21.80;84.10;;;;;;5072833;28;20460;-13
2022/08/30 05:24:36;;;;;;;11.30;8.40;;;21.70;84.10;;;;;;5073120;28;20024;-13
2022/08/30 05:27:03;;;;;;;14.00;9.32;;;21.70;84.00;;;;;;5072545;28;20021;-14
2022/08/30 05:29:30;;;;;;;12.98;9.43;;;21.70;83.90;;;;;;5073083;28;20032;-14
2022/08/30 05:31:56;;;;;;;12.93;9.07;;;21.70;84.20;;;;;;5072872;28;20036;-13
2022/08/30 05:34:22;;;;;;;14.00;9.75;;;21.70;84.50;;;;;;5073045;28;20025;-13
2022/08/30 05:36:48;;;;;;;13.48;8.93;;;21.70;84.80;;;;;;5072726;28;20051;-13
2022/08/30 05:39:14;;;;;;;13.88;10.57;;;21.60;84.40;;;;;;5072998;28;20381;-13
2022/08/30 05:41:40;;;;;;;14.02;9.10;;;21.60;84.30;;;;;;5072631;28;20101;-13
2022/08/30 05:44:08;;;;;;;12.95;9.82;;;21.60;84.20;;;;;;5072634;28;20025;-14
2022/08/30 05:46:35;;;;;;;14.48;9.85;;;21.60;84.50;;;;;;5072442;28;20021;-14
2022/08/30 05:49:04;;;;;;;14.50;11.57;;;21.60;85.10;;;;;;5072344;28;20035;-13
2022/08/30 05:51:33;;;;;;;15.20;11.80;;;21.60;85.80;;;;;;5072532;28;20052;-13
2022/08/30 05:54:00;;;;;;;15.98;11.48;;;21.60;86.50;;;;;;5072917;28;20068;-12
2022/08/30 05:56:30;;;;;;;16.08;12.27;;;21.60;86.60;;;;;;5072409;28;20028;-14
2022/08/30 05:59:47;;;;;;;14.20;10.32;;;21.60;87.00;;;;;;5089350;27;20442;-14
2022/08/30 06:02:13;;;;;;;17.27;10.73;;;21.60;86.20;;;;;;5091159;28;20056;-13
2022/08/30 06:04:39;;;;;;;11.52;9.43;;;21.60;85.60;;;;;;5090566;28;20477;-14
2022/08/30 06:07:05;;;;;;;13.27;9.80;;;21.70;85.30;;;;;;5090350;28;20021;-14
2022/08/30 06:09:31;;;;;;;17.52;13.43;;;21.80;85.20;;;;;;5091084;28;20025;-14
2022/08/30 06:11:58;;;;;;;19.75;13.77;;;21.90;84.80;;;;;;5090735;28;20029;-15
2022/08/30 06:14:24;;;;;;;17.27;12.68;;;21.90;84.90;;;;;;5090711;28;20051;-14
2022/08/30 06:16:50;;;;;;;15.43;11.65;;;21.90;84.90;;;;;;5089982;28;20373;-14
2022/08/30 06:19:17;;;;;;;19.75;12.25;;;22.00;84.80;;;;;;5090501;28;20137;-14
2022/08/30 06:21:47;;;;;;;14.20;11.77;;;22.00;84.80;;;;;;5090288;28;20560;-14
2022/08/30 06:24:13;;;;;;;16.85;11.27;;;22.00;84.80;;;;;;5090594;28;20028;-14
2022/08/30 06:26:43;;;;;;;17.70;12.57;;;22.00;84.60;;;;;;5088896;28;20028;-14
2022/08/30 06:29:11;;;;;;;15.43;10.82;;;22.20;84.60;;;;;;5089901;28;20027;-14
2022/08/30 06:31:38;;;;;;;14.57;10.38;;;22.20;84.60;;;;;;5090305;28;20032;-13
2022/08/30 06:34:03;;;;;;;15.95;11.70;;;22.30;84.70;;;;;;5090022;28;20384;-14
2022/08/30 06:36:30;;;;;;;16.27;12.57;;;22.40;84.50;;;;;;5089989;28;20028;-14
2022/08/30 06:38:57;;;;;;;15.55;10.63;;;22.50;84.20;;;;;;5089624;28;20059;-13
2022/08/30 06:41:26;;;;;;;12.43;9.80;;;22.50;84.10;;;;;;5089874;28;20068;-13
2022/08/30 06:43:53;;;;;;;17.83;12.70;;;22.60;83.90;;;;;;5090145;28;20392;-14
2022/08/30 06:46:22;;;;;;;24.52;16.45;;;22.70;83.80;;;;;;5090003;28;20118;-14
2022/08/30 06:48:48;;;;;;;17.30;12.68;;;22.70;83.70;;;;;;5089654;28;20370;-14
2022/08/30 06:51:19;;;;;;;20.48;13.10;;;22.70;83.60;;;;;;5089977;28;20028;-14
2022/08/30 06:53:47;;;;;;;16.45;12.40;;;22.70;83.60;;;;;;5089739;28;20056;-13
2022/08/30 06:56:15;;;;;;;35.78;17.08;;;22.70;83.60;;;;;;5089856;28;20028;-13
2022/08/30 06:58:41;;;;;;;56.58;18.38;;;22.70;83.50;;;;;;5089249;28;20416;-14
2022/08/30 07:01:11;;;;;;;18.38;13.40;;;22.60;83.50;;;;;;5089240;28;20026;-14
2022/08/30 07:03:37;;;;;;;38.13;14.75;;;22.80;83.50;;;;;;5089867;28;20025;-14
2022/08/30 07:06:03;;;;;;;48.90;19.75;;;22.80;83.50;;;;;;5089419;28;20423;-14
2022/08/30 07:08:29;;;;;;;21.52;13.80;;;22.80;83.40;;;;;;5089718;28;20032;-14
2022/08/30 07:10:56;;;;;;;38.72;16.73;;;22.90;83.40;;;;;;5075582;28;20451;-14
2022/08/30 07:13:23;;;;;;;24.40;13.15;;;22.90;83.30;;;;;;5076114;28;20097;-14
2022/08/30 07:15:50;;;;;;;20.63;12.60;;;22.90;83.30;;;;;;5074488;28;20361;-14
2022/08/30 07:21:11;;;;;;;17.38;12.43;;;23.10;83.10;;;;;;5075814;28;20506;-13
2022/08/30 07:23:42;;;;;;;18.88;13.65;;;23.40;83.00;;;;;;5075700;28;20442;-13
2022/08/30 07:26:13;;;;;;;13.70;11.35;;;23.60;82.60;;;;;;5076211;28;20541;-10
2022/08/30 07:28:42;;;;;;;14.02;10.25;;;23.90;82.00;;;;;;5075594;28;20032;-11
2022/08/30 07:31:09;;;;;;;13.27;9.68;;;24.10;81.50;;;;;;5075144;28;20434;-10
2022/08/30 07:33:36;;;;;;;12.65;9.48;;;24.30;80.80;;;;;;5075758;28;20024;-10
2022/08/30 07:36:04;;;;;;;14.48;9.90;;;24.50;80.00;;;;;;5075388;28;20024;-10
2022/08/30 07:38:30;;;;;;;13.57;10.40;;;24.70;79.70;;;;;;5075233;28;20037;-12
2022/08/30 07:41:00;;;;;;;11.77;8.20;;;24.90;79.10;;;;;;5075111;28;20480;-11
2022/08/30 07:43:31;;;;;;;12.45;8.27;;;25.10;78.70;;;;;;5075277;28;20499;-11
2022/08/30 07:46:06;;;;;;;16.13;9.02;;;25.30;78.10;;;;;;5075634;28;20068;-11
2022/08/30 07:48:32;;;;;;;10.98;8.38;;;25.60;77.70;;;;;;5075454;28;20021;-10
2022/08/30 07:50:58;;;;;;;25.65;9.93;;;25.90;77.40;;;;;;5075000;28;20035;-11
2022/08/30 07:53:24;;;;;;;17.75;8.50;;;26.10;76.70;;;;;;5074992;28;20025;-10
2022/08/30 07:55:50;;;;;;;17.92;8.73;;;26.30;75.70;;;;;;5075300;28;20031;-11
2022/08/30 07:58:16;;;;;;;9.98;7.20;;;26.40;75.40;;;;;;5075136;28;20544;-10
2022/08/30 08:00:42;;;;;;;10.10;7.60;;;26.60;74.40;;;;;;5074847;28;20385;-11
2022/08/30 08:03:09;;;;;;;12.15;7.18;;;26.90;74.70;;;;;;5074658;28;20032;-11
2022/08/30 08:05:41;;;;;;;10.50;8.10;;;27.20;74.30;;;;;;5075093;28;20369;-11
2022/08/30 08:08:08;;;;;;;9.18;6.40;;;27.50;73.10;;;;;;5074774;28;20074;-11
2022/08/30 08:10:40;;;;;;;9.40;6.63;;;27.70;72.10;;;;;;5074883;28;20511;-10
2022/08/30 08:13:06;;;;;;;8.07;6.43;;;27.80;70.30;;;;;;5074617;28;20066;-11
2022/08/30 08:15:32;;;;;;;8.65;6.68;;;27.90;70.40;;;;;;5074985;28;20381;-12
2022/08/30 08:17:58;;;;;;;7.85;6.28;;;28.10;69.80;;;;;;5074873;28;20021;-11
2022/08/30 08:20:25;;;;;;;8.07;6.13;;;28.20;68.70;;;;;;5074823;28;20111;-11
2022/08/30 08:22:51;;;;;;;8.60;5.70;;;28.20;67.50;;;;;;5073355;28;20033;-12
2022/08/30 08:25:17;;;;;;;9.05;6.78;;;28.40;67.10;;;;;;5074679;28;20024;-11
2022/08/30 08:27:47;;;;;;;9.68;6.60;;;28.70;66.20;;;;;;5090016;28;20393;-10
2022/08/30 08:30:14;;;;;;;8.30;6.30;;;28.90;65.00;;;;;;5074700;28;20048;-10
2022/08/30 08:32:40;;;;;;;10.20;6.50;;;29.10;64.50;;;;;;5074275;28;20028;-11
2022/08/30 08:35:07;;;;;;;9.10;5.20;;;29.50;63.40;;;;;;5074303;28;20058;-11
2022/08/30 08:37:32;;;;;;;6.95;5.13;;;29.70;61.90;;;;;;5074072;28;20507;-11
2022/08/30 08:39:58;;;;;;;7.07;5.32;;;30.10;60.70;;;;;;5074146;28;20036;-11
2022/08/30 08:42:27;;;;;;;9.85;5.70;;;30.40;59.60;;;;;;5074060;28;20455;-11
2022/08/30 08:44:56;;;;;;;9.88;4.93;;;30.70;58.50;;;;;;5073759;28;20029;-12
2022/08/30 08:47:36;;;;;;;7.32;5.47;;;30.80;57.80;;;;;;5074153;28;20089;-11
2022/08/30 08:50:07;;;;;;;7.45;5.18;;;30.70;56.20;;;;;;5074456;28;20083;-10
2022/08/30 08:55:52;;;;;;;7.40;5.10;;;30.20;55.20;;;;;;5074020;28;20071;-11
2022/08/30 08:58:31;;;;;;;7.00;5.57;;;30.00;57.70;;;;;;5073390;28;20049;-11
2022/08/30 09:00:58;;;;;;;8.20;5.13;;;29.80;57.50;;;;;;5073675;28;20031;-11
2022/08/30 09:03:28;;;;;;;7.18;5.45;;;29.60;58.00;;;;;;5073952;28;20358;-11
2022/08/30 09:05:56;;;;;;;8.50;5.70;;;29.60;59.00;;;;;;5073973;28;20085;-11
2022/08/30 09:08:23;;;;;;;12.90;6.88;;;29.40;58.90;;;;;;5073926;28;20388;-10
2022/08/30 09:11:15;;;;;;;8.23;5.60;;;29.40;59.30;;;;;;5073341;28;20039;-11
2022/08/30 09:13:42;;;;;;;7.72;5.85;;;29.50;59.20;;;;;;5073574;28;20028;-10
2022/08/30 09:16:08;;;;;;;6.80;4.93;;;29.90;58.40;;;;;;5073707;28;20025;-11
2022/08/30 09:18:46;;;;;;;7.63;5.93;;;30.40;58.40;;;;;;5073658;28;20028;-11
2022/08/30 09:21:20;;;;;;;8.63;5.43;;;30.90;55.50;;;;;;5073706;28;20476;-11
2022/08/30 09:23:49;;;;;;;7.18;5.38;;;31.40;56.60;;;;;;5073401;28;20495;-11
2022/08/30 09:26:34;;;;;;;9.20;5.68;;;31.80;55.80;;;;;;5073379;28;20039;-11
2022/08/30 09:29:00;;;;;;;6.30;4.82;;;32.10;52.50;;;;;;5073152;28;20487;-10
2022/08/30 09:31:32;;;;;;;6.75;5.22;;;32.50;53.70;;;;;;5073188;28;20063;-11
2022/08/30 09:34:04;;;;;;;6.43;4.97;;;32.90;52.70;;;;;;5073016;28;20032;-11
2022/08/30 09:36:42;;;;;;;5.17;4.57;;;33.10;51.70;;;;;;5073517;28;20021;-11
2022/08/30 09:39:25;;;;;;;6.00;4.32;;;33.30;48.40;;;;;;5072891;28;20103;-9
2022/08/30 09:41:52;;;;;;;4.85;4.32;;;33.40;49.10;;;;;;5073195;28;20392;-11
2022/08/30 09:44:26;;;;;;;5.60;3.95;;;33.50;48.60;;;;;;5073452;28;20056;-10
2022/08/30 09:46:58;;;;;;;5.60;4.30;;;33.80;48.50;;;;;;5073162;28;20023;-11
2022/08/30 09:49:39;;;;;;;4.40;3.88;;;34.00;48.00;;;;;;5073308;28;20021;-11
2022/08/30 09:52:24;;;;;;;4.03;3.63;;;34.20;45.70;;;;;;5073297;28;20024;-11
2022/08/30 09:55:27;;;;;;;4.20;3.58;;;34.40;45.80;;;;;;5072992;28;20028;-10
2022/08/30 09:58:08;;;;;;;5.45;3.70;;;34.60;46.00;;;;;;5073006;28;20045;-11
2022/08/30 10:00:46;;;;;;;3.90;3.38;;;34.80;44.30;;;;;;5073027;28;20094;-11
2022/08/30 10:03:50;;;;;;;5.78;3.53;;;35.00;46.20;;;;;;5073627;28;20464;-10
2022/08/30 10:06:45;;;;;;;7.53;3.90;;;35.30;44.60;;;;;;5073602;28;20155;-10
2022/08/30 10:09:39;;;;;;;7.05;3.90;;;35.50;43.50;;;;;;5072821;28;20020;-10
2022/08/30 10:12:15;;;;;;;6.25;3.80;;;35.70;43.60;;;;;;5072696;28;20021;-10
2022/08/30 10:15:10;;;;;;;4.25;3.70;;;35.90;44.60;;;;;;5072723;28;20112;-11
2022/08/30 10:18:03;;;;;;;5.72;3.90;;;36.00;43.70;;;;;;5072720;28;20112;-10
2022/08/30 10:20:49;;;;;;;5.00;3.60;;;36.10;41.20;;;;;;5072623;28;20029;-10
2022/08/30 10:23:49;;;;;;;5.82;3.90;;;36.00;42.20;;;;;;5068695;28;20488;-11
2022/08/30 10:26:42;;;;;;;5.03;3.42;;;35.70;43.50;;;;;;5062138;28;20028;-10
2022/08/30 10:29:28;;;;;;;;;;;35.50;42.90;;;;;;5070199;28;20036;-11
2022/08/30 10:32:00;;;;;;;4.25;3.40;;;35.50;41.30;;;;;;5050270;28;19959;-10
2022/08/30 10:34:34;;;;;;;4.25;3.80;;;35.70;43.60;;;;;;5050585;28;20041;-10
2022/08/30 10:37:06;;;;;;;3.80;3.40;;;35.80;43.30;;;;;;5050315;28;20041;-10
2022/08/30 10:39:41;;;;;;;3.88;3.40;;;35.80;43.70;;;;;;5050227;28;20501;-12
2022/08/30 10:42:20;;;;;;;4.22;3.47;;;36.00;42.30;;;;;;5050422;28;20037;-10
2022/08/30 10:44:56;;;;;;;3.50;3.20;;;36.20;41.60;;;;;;5034613;28;20064;-11
2022/08/30 10:47:29;;;;;;;4.88;3.72;;;36.50;42.00;;;;;;5053980;28;20071;-11
2022/08/30 10:50:15;;;;;;;4.65;3.42;;;36.90;41.00;;;;;;5054252;28;20488;-10
2022/08/30 10:52:51;;;;;;;3.72;3.10;;;36.90;40.70;;;;;;5054058;28;20029;-10
2022/08/30 10:55:27;;;;;;;4.93;3.55;;;36.90;41.50;;;;;;5053999;28;20049;-10
2022/08/30 10:57:59;;;;;;;4.07;3.67;;;37.30;40.00;;;;;;5053676;28;20513;-11
2022/08/30 11:00:35;;;;;;;5.93;3.67;;;37.60;38.30;;;;;;5054013;28;20128;-10
2022/08/30 11:03:21;;;;;;;5.75;4.30;;;37.80;38.50;;;;;;5053847;28;20655;-10
2022/08/30 11:06:06;;;;;;;4.75;3.78;;;37.60;38.30;;;;;;5053871;28;20029;-10
2022/08/30 11:08:53;;;;;;;4.40;3.67;;;37.40;38.40;;;;;;5061035;28;20032;-10
2022/08/30 11:11:40;;;;;;;6.20;3.85;;;37.10;38.60;;;;;;5076216;28;20464;-10
2022/08/30 11:14:10;;;;;;;5.13;3.40;;;36.80;38.10;;;;;;5076689;28;20036;-11
2022/08/30 11:16:42;;;;;;;4.32;3.22;;;36.50;39.30;;;;;;5075848;28;20017;-10
2022/08/30 11:19:25;;;;;;;4.20;3.60;;;36.60;39.50;;;;;;5075526;28;20114;-11
2022/08/30 11:22:06;;;;;;;4.30;3.40;;;36.80;39.60;;;;;;5076035;28;20021;-10
2022/08/30 11:25:04;;;;;;;5.20;3.45;;;36.80;39.60;;;;;;5075793;28;20358;-10
2022/08/30 11:27:57;;;;;;;6.70;3.55;;;37.10;37.80;;;;;;5075910;28;20056;-11
2022/08/30 11:30:23;;;;;;;3.95;3.58;;;37.20;37.90;;;;;;5075829;28;20027;-10
2022/08/30 11:33:11;;;;;;;4.40;3.28;;;37.50;38.20;;;;;;5075491;28;20028;-10
2022/08/30 11:35:48;;;;;;;5.25;3.50;;;37.80;35.20;;;;;;5075398;28;20066;-10
2022/08/30 11:38:27;;;;;;;3.95;3.40;;;38.10;37.30;;;;;;5075639;28;20037;-10
2022/08/30 11:40:56;;;;;;;3.90;3.20;;;38.50;36.70;;;;;;5075118;28;20116;-11
2022/08/30 11:43:34;;;;;;;4.97;3.55;;;39.00;36.20;;;;;;5075328;28;20115;-10
2022/08/30 11:46:26;;;;;;;3.53;2.95;;;39.60;35.80;;;;;;5075487;28;20024;-11
2022/08/30 11:49:13;;;;;;;4.45;3.53;;;40.30;35.60;;;;;;5052945;28;20094;-10
2022/08/30 11:51:52;;;;;;;4.25;3.60;;;40.70;33.80;;;;;;5053073;28;20048;-10
2022/08/30 11:54:27;;;;;;;5.22;3.60;;;40.60;33.60;;;;;;5053546;28;20037;-10
2022/08/30 11:57:30;;;;;;;4.90;3.38;;;40.40;33.80;;;;;;5052777;28;20031;-11
2022/08/30 12:00:27;;;;;;;6.22;3.80;;;40.00;34.20;;;;;;5053345;28;20045;-10
2022/08/30 12:03:04;;;;;;;5.13;3.78;;;39.40;33.80;;;;;;5052667;28;20018;-10
2022/08/30 12:05:37;;;;;;;9.55;4.13;;;38.70;34.60;;;;;;5052853;28;20033;-10
2022/08/30 12:08:32;;;;;;;3.80;3.35;;;38.40;36.10;;;;;;5052768;28;20029;-10
2022/08/30 12:11:23;;;;;;;5.47;3.60;;;38.60;36.20;;;;;;5046515;28;20056;-10
2022/08/30 12:13:52;;;;;;;5.25;4.15;;;39.10;35.20;;;;;;5022432;28;20566;-10
2022/08/30 12:16:22;;;;;;;4.35;3.63;;;39.50;35.00;;;;;;5053072;28;20025;-10
2022/08/30 12:18:47;;;;;;;6.35;3.85;;;39.60;35.10;;;;;;5052363;28;20123;-10
2022/08/30 12:21:19;;;;;;;7.95;4.05;;;39.90;35.30;;;;;;5052360;28;20045;-11
2022/08/30 12:23:51;;;;;;;5.97;3.42;;;40.30;35.10;;;;;;5035719;28;20512;-11
2022/08/30 12:26:23;;;;;;;4.93;3.65;;;40.80;34.60;;;;;;5069350;28;20065;-10
2022/08/30 12:28:50;;;;;;;;;;;41.30;33.50;;;;;;5091111;28;20534;-10
2022/08/30 12:31:24;;;;;;;6.90;3.63;;;41.70;33.30;;;;;;5074558;28;19905;-11
2022/08/30 12:33:55;;;;;;;3.80;3.40;;;42.00;32.10;;;;;;5074330;28;20028;-10
2022/08/30 12:36:30;;;;;;;6.78;3.88;;;42.30;31.90;;;;;;5073495;28;20024;-10
2022/08/30 12:39:12;;;;;;;7.50;3.90;;;42.20;31.40;;;;;;5074229;28;20055;-11
2022/08/30 12:41:40;;;;;;;4.90;4.13;;;42.00;32.00;;;;;;5074509;28;20082;-11
2022/08/30 12:44:12;;;;;;;4.63;3.85;;;41.70;31.90;;;;;;5074107;28;20266;-11
2022/08/30 12:46:41;;;;;;;5.80;3.72;;;40.90;32.20;;;;;;5074313;28;20021;-10
2022/08/30 12:49:08;;;;;;;6.18;3.78;;;40.40;33.60;;;;;;5073798;28;20020;-10
2022/08/30 12:51:40;;;;;;;4.95;3.70;;;40.40;33.70;;;;;;5074190;28;20032;-10
2022/08/30 12:54:11;;;;;;;;;;;40.40;33.50;;;;;;5074528;28;20021;-10
2022/08/30 12:56:48;;;;;;;4.20;3.38;;;40.40;33.70;;;;;;5074205;28;19908;-10
2022/08/30 12:59:40;;;;;;;5.07;4.15;;;40.20;33.60;;;;;;5073550;28;20040;-10
2022/08/30 13:02:18;;;;;;;5.70;4.50;;;39.90;33.80;;;;;;5071060;28;20032;-11
2022/08/30 13:04:48;;;;;;;4.80;4.20;;;39.70;33.90;;;;;;5073740;28;20443;-10
2022/08/30 13:07:34;;;;;;;5.05;4.43;;;39.40;34.60;;;;;;5073091;28;20029;-10